tititudorancea.com
Station Historical Data
Daily Summary for January 15, 2019 Units:  Metric    English   Both
« Previous Day
Next Day »
Daily Weekly Monthly Yearly Custom
  High: Low: Average:
Temperature: -17.8 °C 13.7 °C 27.3 °C
Dew Point: -17.8 °C -2 °C 6.9 °C
Humidity: Humidity % 9 % 34 %
Wind Speed: 0 km/h 0 km/h 7.9 km/h
Wind Gust: 0 km/h - -
Wind:- - WSW
Pressure: 0 hPa 1006.3 hPa -
Precipitation: 0 mm    
Historical Graphs
 
 
Ararat weather Find more about Weather in Ararat, AU


 



 


Tabular Data for January 15, 2019
Time Temperature Dew Point Pressure Wind Wind Speed Wind Gust Humidity Rainfall Rate (Hourly)
-17.8 °C -17.8 °C 0 hPa Calm     Humidity % 0 mm
00:04 22.3 °C 8.1 °C 1009 hPa South 3.7 km/h 0.2 km/h 40 % 0 mm
00:09 22.1 °C 7.9 °C 1009 hPa South 1.9 km/h   40 % 0 mm
00:14 21.8 °C 8 °C 1009 hPa Calm     41 % 0 mm
00:19 21.6 °C 8.1 °C 1009 hPa South 3.2 km/h 2.7 km/h 42 % 0 mm
00:24 21.2 °C 8.1 °C 1009 hPa South 1.9 km/h 0.2 km/h 43 % 0 mm
00:29 20.7 °C 8.3 °C 1009 hPa Calm     45 % 0 mm
00:34 20.3 °C 7.9 °C 1009 hPa Calm     45 % 0 mm
00:39 20 °C 8.3 °C 1009 hPa Calm     47 % 0 mm
00:44 19.7 °C 8.1 °C 1009 hPa Calm     47 % 0 mm
00:49 19.4 °C 8.1 °C 1009 hPa Calm     48 % 0 mm
00:54 18.9 °C 8.3 °C 1008.7 hPa Calm     50 % 0 mm
00:59 18.7 °C 8.4 °C 1008.7 hPa Calm     51 % 0 mm
01:04 18.6 °C 8.6 °C 1008.7 hPa South 3.7 km/h 2.4 km/h 52 % 0 mm
01:09 18.6 °C 8.3 °C 1008.7 hPa South 3.7 km/h 2.7 km/h 51 % 0 mm
01:14 18.8 °C 8.4 °C 1009 hPa South 5.6 km/h 3.9 km/h 51 % 0 mm
01:19 18.9 °C 8.2 °C 1008.7 hPa South 5.6 km/h 1.8 km/h 50 % 0 mm
01:24 19 °C 8.3 °C 1008.7 hPa South 5.6 km/h 3.9 km/h 50 % 0 mm
01:29 18.9 °C 8.6 °C 1008.7 hPa South 5.6 km/h 3.4 km/h 51 % 0 mm
01:34 18.7 °C 8.4 °C 1008.7 hPa South 5.6 km/h 1.4 km/h 51 % 0 mm
01:39 18.4 °C 8.4 °C 1008.7 hPa Calm     52 % 0 mm
01:44 18.2 °C 8.5 °C 1008.4 hPa Calm     53 % 0 mm
01:49 18.1 °C 8.6 °C 1008.4 hPa South 1.9 km/h 0.3 km/h 54 % 0 mm
01:54 17.9 °C 8.4 °C 1008.4 hPa South 3.7 km/h   54 % 0 mm
01:59 17.8 °C 8.6 °C 1008.4 hPa South 1.9 km/h 0.2 km/h 55 % 0 mm
02:04 17.7 °C 8.8 °C 1008.4 hPa Calm     56 % 0 mm
02:09 17.5 °C 8.6 °C 1008 hPa Calm     56 % 0 mm
02:14 17.4 °C 8.8 °C 1008 hPa South 3.7 km/h 1.9 km/h 57 % 0 mm
02:19 17.4 °C 8.8 °C 1008 hPa Calm     57 % 0 mm
02:24 17.2 °C 9.1 °C 1008 hPa Calm     59 % 0 mm
02:29 17.1 °C 9.1 °C 1008 hPa Calm     59 % 0 mm
02:34 17 °C 8.9 °C 1008 hPa Calm     59 % 0 mm
02:39 16.9 °C 9.1 °C 1007.7 hPa Calm     60 % 0 mm
02:44 16.9 °C 9.3 °C 1007.7 hPa Calm     61 % 0 mm
02:49 16.9 °C 9.4 °C 1007.7 hPa Calm     61 % 0 mm
02:54 16.9 °C 9.4 °C 1007.7 hPa Calm     61 % 0 mm
02:59 16.9 °C 9.6 °C 1007.7 hPa Calm     62 % 0 mm
03:04 16.9 °C 9.6 °C 1007.7 hPa Calm     62 % 0 mm
03:09 16.9 °C 9.6 °C 1007.7 hPa Calm     62 % 0 mm
03:14 16.9 °C 9.6 °C 1007.3 hPa Calm     62 % 0 mm
03:19 16.8 °C 9.7 °C 1007.3 hPa Calm     63 % 0 mm
03:24 16.7 °C 9.7 °C 1007.3 hPa Calm     63 % 0 mm
03:29 16.6 °C 9.8 °C 1007.3 hPa Calm     64 % 0 mm
03:34 16.6 °C 9.5 °C 1007.3 hPa Calm     63 % 0 mm
03:39 16.5 °C 9.4 °C 1007.3 hPa Calm     63 % 0 mm
03:44 16.3 °C 9.5 °C 1007 hPa Calm     64 % 0 mm
03:49 16.2 °C 9.3 °C 1007 hPa Calm     64 % 0 mm
03:54 16.1 °C 9.2 °C 1007 hPa Calm     64 % 0 mm
03:59 15.9 °C 9.3 °C 1007 hPa Calm     65 % 0 mm
04:04 15.8 °C 9.4 °C 1007 hPa Calm     66 % 0 mm
04:09 15.6 °C 9.3 °C 1007 hPa Calm     66 % 0 mm
04:14 15.4 °C 9.1 °C 1007 hPa Calm     66 % 0 mm
04:19 15.3 °C 9.2 °C 1007 hPa Calm     67 % 0 mm
04:24 15.2 °C 9.1 °C 1007 hPa Calm     67 % 0 mm
04:29 15.1 °C 9 °C 1006.7 hPa Calm     67 % 0 mm
04:34 14.9 °C 9.1 °C 1006.7 hPa Calm     68 % 0 mm
04:39 14.8 °C 9 °C 1006.7 hPa Calm     68 % 0 mm
04:44 14.7 °C 8.8 °C 1007 hPa Calm     68 % 0 mm
04:49 14.6 °C 8.9 °C 1007 hPa Calm     69 % 0 mm
04:54 14.4 °C 9 °C 1007 hPa Calm     70 % 0 mm
04:59 14.3 °C 8.9 °C 1006.7 hPa Calm     70 % 0 mm
05:04 14.2 °C 8.8 °C 1006.7 hPa Calm     70 % 0 mm
05:09 14 °C 8.8 °C 1007 hPa Calm     71 % 0 mm
05:14 13.9 °C 8.7 °C 1006.7 hPa Calm     71 % 0 mm
05:19 13.8 °C 8.8 °C 1006.7 hPa Calm     72 % 0 mm
05:24 13.8 °C 9 °C 1006.7 hPa Calm     73 % 0 mm
05:29 13.8 °C 9.1 °C 1006.7 hPa Calm     73 % 0 mm
05:34 13.8 °C 9 °C 1006.7 hPa Calm     73 % 0 mm
05:39 13.7 °C 9.2 °C 1007 hPa Calm     74 % 0 mm
05:44 13.8 °C 9.2 °C 1006.7 hPa Calm     74 % 0 mm
05:49 13.8 °C 9.2 °C 1006.7 hPa Calm     74 % 0 mm
05:54 13.7 °C 9.2 °C 1006.7 hPa Calm     74 % 0 mm
05:59 13.7 °C 9.4 °C 1006.7 hPa Calm     75 % 0 mm
06:04 13.7 °C 9.4 °C 1006.7 hPa Calm     75 % 0 mm
06:09 13.7 °C 9.3 °C 1006.7 hPa Calm     75 % 0 mm
06:14 13.7 °C 9.4 °C 1007 hPa Calm     75 % 0 mm
06:19 13.9 °C 9.6 °C 1007 hPa Calm     75 % 0 mm
06:24 14.2 °C 9.8 °C 1007 hPa Calm     75 % 0 mm
06:29 14.3 °C 9.8 °C 1007 hPa Calm     74 % 0 mm
06:34 14.5 °C 9.9 °C 1007 hPa Calm     74 % 0 mm
06:39 14.7 °C 9.9 °C 1007 hPa Calm     73 % 0 mm
06:44 14.8 °C 9.8 °C 1007 hPa Calm     72 % 0 mm
06:49 14.9 °C 9.9 °C 1007 hPa Calm     72 % 0 mm
06:54 15 °C 10 °C 1007.3 hPa Calm     72 % 0 mm
06:59 15.2 °C 10.2 °C 1007.3 hPa Calm     72 % 0 mm
07:04 15.4 °C 10.2 °C 1007.3 hPa Calm     71 % 0 mm
07:09 15.7 °C 10.4 °C 1007.3 hPa Calm     71 % 0 mm
07:14 15.8 °C 10.6 °C 1007.3 hPa Calm     71 % 0 mm
07:19 16.2 °C 10.9 °C 1007.3 hPa Calm     71 % 0 mm
07:24 16.6 °C 11.1 °C 1007.3 hPa Calm     70 % 0 mm
07:29 17.4 °C 11.8 °C 1007.3 hPa Calm     70 % 0 mm
07:34 18.2 °C 11.8 °C 1007.3 hPa Calm     66 % 0 mm
07:39 18.9 °C 11.4 °C 1007.3 hPa Calm     62 % 0 mm
07:44 19.4 °C 11.2 °C 1007.7 hPa South 3.7 km/h 0.3 km/h 59 % 0 mm
07:49 19.8 °C 10.7 °C 1007.7 hPa South 1.9 km/h 2.3 km/h 56 % 0 mm
07:54 20.2 °C 10.9 °C 1007.7 hPa South 4.8 km/h 3.5 km/h 55 % 0 mm
07:59 20.6 °C 10.7 °C 1007.7 hPa South 3.7 km/h 1.9 km/h 53 % 0 mm
08:04 20.9 °C 10.4 °C 1008 hPa South 5.6 km/h 3.2 km/h 51 % 0 mm
08:09 21.2 °C 10.9 °C 1008 hPa South 1.9 km/h   52 % 0 mm
08:14 21.5 °C 10.9 °C 1008 hPa South 1.9 km/h   51 % 0 mm
08:19 21.8 °C 11.2 °C 1008 hPa Calm     51 % 0 mm
08:24 22.3 °C 11.3 °C 1008 hPa Calm     50 % 0 mm
08:29 22.8 °C 11.5 °C 1008 hPa Calm     49 % 0 mm
08:34 23.2 °C 12.5 °C 1007.7 hPa South 1.9 km/h 1.6 km/h 51 % 0 mm
08:39 23.7 °C 12.1 °C 1007.7 hPa South 1.9 km/h 0.5 km/h 48 % 0 mm
08:44 24.4 °C 12.4 °C 1007.7 hPa South 5.6 km/h 5.6 km/h 47 % 0 mm
08:49 25.4 °C 11.2 °C 1007.7 hPa South 5.6 km/h 1.4 km/h 41 % 0 mm
08:54 26.8 °C 9.7 °C 1007.7 hPa South 7.4 km/h 5.8 km/h 34 % 0 mm
08:59 28 °C 10.2 °C 1007.7 hPa South 5.6 km/h 4 km/h 33 % 0 mm
09:04 28.9 °C 10.1 °C 1007.7 hPa SSW 9.3 km/h 6.3 km/h 31 % 0 mm
09:09 29.5 °C 9.6 °C 1007.7 hPa SSW 14.8 km/h 9.2 km/h 29 % 0 mm
09:14 29.8 °C 9.3 °C 1007.7 hPa WNW 14.8 km/h 9.5 km/h 28 % 0 mm
09:19 29.9 °C 9.4 °C 1008 hPa North 9.3 km/h 7.9 km/h 28 % 0 mm
09:24 29.7 °C 9.8 °C 1008 hPa North 11.1 km/h 5.8 km/h 29 % 0 mm
09:29 29.7 °C 10.3 °C 1008 hPa NW 13 km/h 4.3 km/h 30 % 0 mm
09:34 30.1 °C 10.6 °C 1007.7 hPa NW 9.7 km/h 7.2 km/h 30 % 0 mm
09:39 30.7 °C 10.1 °C 1007.7 hPa North 11.1 km/h 4.8 km/h 28 % 0 mm
09:44 31 °C 9.8 °C 1008 hPa North 14.8 km/h 7.7 km/h 27 % 0 mm
09:49 31.4 °C 10.2 °C 1008 hPa North 11.1 km/h 7.9 km/h 27 % 0 mm
09:54 32.1 °C 10.2 °C 1007.7 hPa NNW 11.1 km/h 11.1 km/h 26 % 0 mm
09:59 32.2 °C 9.7 °C 1007.7 hPa NNW 13 km/h 9.3 km/h 25 % 0 mm
10:04 32.1 °C 9.6 °C 1007.7 hPa NNW 11.1 km/h 12.1 km/h 25 % 0 mm
10:09 32 °C 10.1 °C 1007.7 hPa NNW 11.1 km/h 7.6 km/h 26 % 0 mm
10:14 32.6 °C 10.6 °C 1007.3 hPa North 13 km/h 9.2 km/h 26 % 0 mm
10:19 33.2 °C 10.5 °C 1007.3 hPa North 13 km/h 6.8 km/h 25 % 0 mm
10:24 33.7 °C 10.9 °C 1007.3 hPa North 11.1 km/h 5.3 km/h 25 % 0 mm
10:29 33.6 °C 10.2 °C 1007.3 hPa NNW 16.7 km/h 11.6 km/h 24 % 0 mm
10:34 33.1 °C 10.4 °C 1007.7 hPa NNW 18.5 km/h 8.9 km/h 25 % 0 mm
10:39 33.2 °C 11.1 °C 1007.3 hPa NNW 7.4 km/h 1.8 km/h 26 % 0 mm
10:44 33.6 °C 10.3 °C 1007.7 hPa NNW 11.3 km/h 9 km/h 24 % 0 mm
10:49 33.7 °C 9.7 °C 1007.7 hPa NW 14.8 km/h 8 km/h 23 % 0 mm
10:54 33.8 °C 9.8 °C 1007.3 hPa NW 9.3 km/h 5.5 km/h 23 % 0 mm
10:59 34 °C 10.6 °C 1007.3 hPa NW 9.7 km/h 4 km/h 24 % 0 mm
11:04 34.4 °C 10.3 °C 1007.3 hPa NNW 9.7 km/h 6.3 km/h 23 % 0 mm
11:09 34.6 °C 9.7 °C 1007.3 hPa NNW 13 km/h 7.6 km/h 22 % 0 mm
11:14 34.7 °C 9.9 °C 1007.3 hPa NNW 11.1 km/h 4.5 km/h 22 % 0 mm
11:19 34.7 °C 9.9 °C 1007.3 hPa North 16.7 km/h 9.3 km/h 22 % 0 mm
11:24 34.8 °C 9.3 °C 1007.3 hPa North 9.3 km/h 6.8 km/h 21 % 0 mm
11:29 34.9 °C 9.4 °C 1007.3 hPa North 6.4 km/h 5.5 km/h 21 % 0 mm
11:34 35.2 °C 9.6 °C 1007.3 hPa North 7.4 km/h 4.7 km/h 21 % 0 mm
11:39 35.7 °C 7.7 °C 1007 hPa North 19.3 km/h 10.1 km/h 18 % 0 mm
11:44 36 °C 6.2 °C 1007 hPa NW 11.1 km/h 8 km/h 16 % 0 mm
11:49 36.4 °C 5.6 °C 1007.3 hPa WSW 20.4 km/h 13.7 km/h 15 % 0 mm
11:54 36.7 °C 5.9 °C 1007.3 hPa WNW 18.5 km/h 11.6 km/h 15 % 0 mm
11:59 36.4 °C 6.6 °C 1007.3 hPa WNW 13 km/h 7.9 km/h 16 % 0 mm
12:04 36.1 °C 5.3 °C 1007.3 hPa NW 9.7 km/h 8.4 km/h 15 % 0 mm
12:09 35.9 °C 4.3 °C 1007.3 hPa NW 12.9 km/h 11.4 km/h 14 % 0 mm
12:14 35.6 °C 4 °C 1007.3 hPa WNW 22.2 km/h 17.9 km/h 14 % 0 mm
12:19 35.4 °C 3.8 °C 1007.3 hPa WNW 14.8 km/h 9.5 km/h 14 % 0 mm
12:24 35.3 °C 3.7 °C 1007.3 hPa WNW 20.4 km/h 12.1 km/h 14 % 0 mm
12:29 35.1 °C 4.6 °C 1007 hPa WNW 13 km/h 9.7 km/h 15 % 0 mm
12:34 35 °C 5.4 °C 1007.3 hPa WNW 14.8 km/h 9.8 km/h 16 % 0 mm
12:39 35 °C 5.4 °C 1007.3 hPa WNW 16.7 km/h 10.9 km/h 16 % 0 mm
12:44 35.1 °C 6.3 °C 1007.3 hPa WNW 13 km/h 8.7 km/h 17 % 0 mm
12:49 35.1 °C 6.4 °C 1007.3 hPa WNW 13 km/h 9 km/h 17 % 0 mm
12:54 35.2 °C 6.5 °C 1007.3 hPa WNW 14.5 km/h 10.6 km/h 17 % 0 mm
12:59 35.3 °C 6.6 °C 1007.3 hPa WNW 16.7 km/h 12.4 km/h 17 % 0 mm
13:04 35.4 °C 6.6 °C 1007.3 hPa WNW 12.9 km/h 10.3 km/h 17 % 0 mm
13:09 35.3 °C 6.6 °C 1007.3 hPa WNW 13 km/h 8.5 km/h 17 % 0 mm
13:14 35.4 °C 6.6 °C 1007.3 hPa WNW 11.3 km/h 9 km/h 17 % 0 mm
13:19 35.4 °C 6.7 °C 1007.3 hPa WNW 14.8 km/h 6.9 km/h 17 % 0 mm
13:24 35.4 °C 7.4 °C 1007.3 hPa WNW 9.3 km/h 6.4 km/h 18 % 0 mm
13:29 35.3 °C 6.6 °C 1007.3 hPa WNW 5.6 km/h 5.1 km/h 17 % 0 mm
13:34 35.3 °C 6.6 °C 1007.3 hPa North 5.6 km/h 2.1 km/h 17 % 0 mm
13:39 35.6 °C 5.9 °C 1007 hPa WNW 7.4 km/h 4 km/h 16 % 0 mm
13:44 35.8 °C 6.1 °C 1007.3 hPa WNW 8 km/h 6.1 km/h 16 % 0 mm
13:49 36.5 °C 4.7 °C 1007.3 hPa North 11.1 km/h 9.3 km/h 14 % 0 mm
13:54 36.9 °C 5 °C 1007.3 hPa WNW 13 km/h 9.3 km/h 14 % 0 mm
13:59 36.4 °C 3.6 °C 1007.3 hPa West 14.8 km/h 9.5 km/h 13 % 0 mm
14:04 36.2 °C 4.5 °C 1007.3 hPa West 11.3 km/h 5.5 km/h 14 % 0 mm
14:09 36.1 °C 3.3 °C 1007.3 hPa WNW 13 km/h 6.8 km/h 13 % 0 mm
14:14 36 °C 3.2 °C 1007 hPa WNW 6.4 km/h 3.4 km/h 13 % 0 mm
14:19 36.3 °C 1.2 °C 1007 hPa WNW 9.3 km/h 7.1 km/h 11 % 0 mm
14:24 37.2 °C 1.8 °C 1007 hPa West 18.5 km/h 7.4 km/h 11 % 0 mm
14:29 37.6 °C 2.1 °C 1007 hPa WNW 13 km/h 7.6 km/h 11 % 0 mm
14:34 37.8 °C 2.3 °C 1007 hPa WNW 16.7 km/h 13.8 km/h 11 % 0 mm
14:39 38 °C 1.1 °C 1007 hPa WNW 13 km/h 7.4 km/h 10 % 0 mm
14:44 38.2 °C -0.2 °C 1006.7 hPa SW 16.7 km/h 6.8 km/h 9 % 0 mm
14:49 38.1 °C 1.2 °C 1006.7 hPa SW 11.1 km/h 5.1 km/h 10 % 0 mm
14:54 38.3 °C 1.3 °C 1006.7 hPa SW 13 km/h 10.1 km/h 10 % 0 mm
14:59 37.7 °C 0.9 °C 1007 hPa SW 14.8 km/h 11.1 km/h 10 % 0 mm
15:04 37.2 °C 1.8 °C 1007 hPa WSW 29.6 km/h 19.2 km/h 11 % 0 mm
15:09 36.9 °C 4 °C 1006.7 hPa SSW 25.9 km/h 20.1 km/h 13 % 0 mm
15:14 37.1 °C 3 °C 1006.7 hPa SSW 27.8 km/h 19.2 km/h 12 % 0 mm
15:19 37 °C 4.1 °C 1007 hPa SSW 25.9 km/h 16.9 km/h 13 % 0 mm
15:24 36.6 °C 1.4 °C 1007 hPa SW 22.2 km/h 17.1 km/h 11 % 0 mm
15:29 36.2 °C 4.5 °C 1007 hPa SSW 25.9 km/h 19.3 km/h 14 % 0 mm
15:34 36.6 °C 2.6 °C 1007.3 hPa North 18.5 km/h 14.8 km/h 12 % 0 mm
15:39 36.3 °C 3.4 °C 1007 hPa SSW 20.4 km/h 14.3 km/h 13 % 0 mm
15:44 36.1 °C 2.2 °C 1007.3 hPa SW 24.1 km/h 22.4 km/h 12 % 0 mm
15:49 36 °C 4.3 °C 1007.3 hPa SSW 18.5 km/h 17.9 km/h 14 % 0 mm
15:54 35.8 °C -2 °C 1007.3 hPa SSW 18.5 km/h 16.4 km/h 9 % 0 mm
15:59 35.6 °C -0.7 °C 1007.3 hPa SW 31.5 km/h 20.4 km/h 10 % 0 mm
16:04 35.3 °C 0.3 °C 1007 hPa SW 22.2 km/h 12.7 km/h 11 % 0 mm
16:09 35.4 °C 1.7 °C 1007 hPa WSW 18.5 km/h 9.3 km/h 12 % 0 mm
16:14 35.6 °C 2.9 °C 1007 hPa SSW 22.2 km/h 14.5 km/h 13 % 0 mm
16:19 35.7 °C 4.1 °C 1007 hPa South 22.2 km/h 9.2 km/h 14 % 0 mm
16:24 35.6 °C 5 °C 1007 hPa South 18.5 km/h 7.6 km/h 15 % 0 mm
16:29 35.4 °C 4.8 °C 1006.7 hPa SSW 20.4 km/h 10.5 km/h 15 % 0 mm
16:34 35.4 °C 4.8 °C 1006.7 hPa SSW 20.9 km/h 14.6 km/h 15 % 0 mm
16:39 35.8 °C 4.2 °C 1006.7 hPa SW 24.1 km/h 15 km/h 14 % 0 mm
16:44 36.3 °C 3.5 °C 1006.7 hPa SSW 25.9 km/h 15.4 km/h 13 % 0 mm
16:49 36.4 °C 4.7 °C 1006.7 hPa SSW 20.9 km/h 9.5 km/h 14 % 0 mm
16:54 36.3 °C 2.3 °C 1006.7 hPa SSW 13 km/h 12.1 km/h 12 % 0 mm
16:59 36.1 °C 1 °C 1006.7 hPa South 13 km/h 8.4 km/h 11 % 0 mm
17:04 35.9 °C 0.8 °C 1006.7 hPa SSW 17.7 km/h 13.7 km/h 11 % 0 mm
17:09 36.3 °C -0.2 °C 1006.7 hPa SSW 19.3 km/h 15.3 km/h 10 % 0 mm
17:14 36.3 °C -1.7 °C 1006.7 hPa SSW 24.1 km/h 11.4 km/h 9 % 0 mm
17:19 36.5 °C -0.1 °C 1006.7 hPa South 22.5 km/h 14.5 km/h 10 % 0 mm
17:24 36.8 °C -1.2 °C 1006.7 hPa South 20.4 km/h 10.9 km/h 9 % 0 mm
17:29 36.9 °C 0.3 °C 1006.3 hPa South 18.5 km/h 9.7 km/h 10 % 0 mm
17:34 37.3 °C -0.9 °C 1006.3 hPa South 14.8 km/h 9.7 km/h 9 % 0 mm
17:39 37.4 °C -0.8 °C 1006.3 hPa SSE 16.7 km/h 9.7 km/h 9 % 0 mm
17:44 37.3 °C -0.9 °C 1006.3 hPa South 24.1 km/h 17.2 km/h 9 % 0 mm
17:49 37.2 °C 0.4 °C 1006.3 hPa SSW 17.7 km/h 15 km/h 10 % 0 mm
17:54 37.1 °C 1.7 °C 1006.3 hPa SSW 18.5 km/h 9.8 km/h 11 % 0 mm
17:59 36.9 °C 2.8 °C 1006.3 hPa South 22.2 km/h 15.8 km/h 12 % 0 mm
18:04 36.9 °C 2.8 °C 1006.3 hPa South 18.5 km/h 12.2 km/h 12 % 0 mm
18:09 36.8 °C 2.7 °C 1006.3 hPa South 11.3 km/h 6.1 km/h 12 % 0 mm
18:14 36.8 °C 1.6 °C 1006.3 hPa SSW 14.8 km/h 10.3 km/h 11 % 0 mm
18:19 36.6 °C 1.4 °C 1006.3 hPa SSW 7.4 km/h 6.4 km/h 11 % 0 mm
18:24 36.6 °C 2.6 °C 1006.3 hPa SSW 9.3 km/h 8.9 km/h 12 % 0 mm
18:29 36.9 °C 2.8 °C 1006.3 hPa South 9.3 km/h 6.8 km/h 12 % 0 mm
18:34 37.1 °C 2.9 °C 1006.3 hPa South 18.5 km/h 13.2 km/h 12 % 0 mm
18:39 37.1 °C 3 °C 1006.3 hPa SSW 13 km/h 6.9 km/h 12 % 0 mm
18:44 37.1 °C 3 °C 1006.3 hPa South 25.9 km/h 14 km/h 12 % 0 mm
18:49 37 °C 2.9 °C 1006.3 hPa South 13 km/h 9 km/h 12 % 0 mm
18:54 37.1 °C 4.1 °C 1006.3 hPa SSW 13 km/h 10.8 km/h 13 % 0 mm
18:59 37 °C 4.1 °C 1006.7 hPa SSW 18.5 km/h 11.9 km/h 13 % 0 mm
19:04 36.7 °C 3.8 °C 1006.3 hPa South 13 km/h 7.4 km/h 13 % 0 mm
19:09 36.5 °C 3.6 °C 1006.3 hPa South 14.8 km/h 8.9 km/h 13 % 0 mm
19:14 36.2 °C 3.4 °C 1006.3 hPa South 9.7 km/h 9 km/h 13 % 0 mm
19:19 36.1 °C 4.3 °C 1006.3 hPa South 13 km/h 8 km/h 14 % 0 mm
19:24 36.2 °C 4.5 °C 1006.3 hPa South 5.6 km/h 2.7 km/h 14 % 0 mm
19:29 36.4 °C 3.6 °C 1006.3 hPa South 7.4 km/h 4.3 km/h 13 % 0 mm
19:34 36.4 °C 4.7 °C 1006.3 hPa South 9.3 km/h 4.5 km/h 14 % 0 mm
19:39 36.2 °C 4.5 °C 1006.3 hPa South 5.6 km/h 4.2 km/h 14 % 0 mm
19:44 36.1 °C 4.3 °C 1006.3 hPa South 7.4 km/h 5.1 km/h 14 % 0 mm
19:49 36.1 °C 5.3 °C 1006.3 hPa South 5.6 km/h 1.1 km/h 15 % 0 mm
19:54 36.1 °C 4.4 °C 1006.3 hPa South 1.9 km/h 0.8 km/h 14 % 0 mm
19:59 36.2 °C 4.4 °C 1006.3 hPa Calm     14 % 0 mm
20:04 36.1 °C 5.4 °C 1006.3 hPa Calm     15 % 0 mm
20:09 35.9 °C 5.2 °C 1006.3 hPa South 1.9 km/h   15 % 0 mm
20:14 35.6 °C 5.9 °C 1006.3 hPa Calm     16 % 0 mm
20:19 35.3 °C 7.4 °C 1006.7 hPa Calm     18 % 0 mm
20:24 34.8 °C 7.8 °C 1006.7 hPa Calm     19 % 0 mm
20:29 33.8 °C 7.7 °C 1006.7 hPa Calm     20 % 0 mm
20:34 33 °C 7.8 °C 1006.7 hPa Calm     21 % 0 mm
20:39 32.2 °C 7.8 °C 1006.7 hPa Calm     22 % 0 mm
20:44 31.8 °C 6.8 °C 1006.7 hPa Calm     21 % 0 mm
20:49 31.2 °C 8.2 °C 1006.7 hPa Calm     24 % 0 mm
20:54 30.5 °C 8.2 °C 1006.7 hPa South 5.6 km/h 3.4 km/h 25 % 0 mm
20:59 30.2 °C 8.6 °C 1006.7 hPa South 3.7 km/h 2.9 km/h 26 % 0 mm
21:04 29.7 °C 8.2 °C 1007 hPa South 6.4 km/h 5 km/h 26 % 0 mm
21:09 29.4 °C 8.5 °C 1006.7 hPa South 3.7 km/h 1.3 km/h 27 % 0 mm
21:14 29.3 °C 8.9 °C 1007 hPa South 1.9 km/h   28 % 0 mm
21:19 28.8 °C 8.9 °C 1006.7 hPa South 3.2 km/h 1.9 km/h 29 % 0 mm
21:24 28.3 °C 8.6 °C 1007 hPa South 3.7 km/h 1.8 km/h 29 % 0 mm
21:29 28.1 °C 7.9 °C 1006.7 hPa South 1.9 km/h   28 % 0 mm
21:34 27.9 °C 8.3 °C 1007 hPa South 3.7 km/h 1.4 km/h 29 % 0 mm
21:39 27.7 °C 8 °C 1007 hPa South 3.7 km/h 2.9 km/h 29 % 0 mm
21:44 27.6 °C 7.9 °C 1007 hPa South 3.7 km/h 2.6 km/h 29 % 0 mm
21:49 27.4 °C 8.3 °C 1007 hPa Calm   0.2 km/h 30 % 0 mm
21:54 27.1 °C 8.4 °C 1007 hPa Calm     31 % 0 mm
21:59 26.8 °C 8.7 °C 1007 hPa Calm     32 % 0 mm
22:04 26.4 °C 7.9 °C 1007.3 hPa Calm     31 % 0 mm
22:09 26 °C 8 °C 1007.3 hPa South 5.6 km/h 2.1 km/h 32 % 0 mm
22:14 25.7 °C 7.7 °C 1007.3 hPa South 3.7 km/h 2.4 km/h 32 % 0 mm
22:19 25.4 °C 7.6 °C 1007.3 hPa Calm     32 % 0 mm
22:24 25.2 °C 7.3 °C 1007.3 hPa Calm     32 % 0 mm
22:29 24.9 °C 7.1 °C 1007.3 hPa Calm     32 % 0 mm
22:34 24.5 °C 7.2 °C 1007.3 hPa South 3.7 km/h 3.2 km/h 33 % 0 mm
22:39 24.6 °C 7.2 °C 1007.3 hPa South 1.9 km/h   33 % 0 mm
22:44 24.4 °C 7.1 °C 1007.7 hPa Calm     33 % 0 mm
22:49 24.5 °C 7.6 °C 1007.7 hPa Calm     34 % 0 mm
22:54 24.4 °C 7.6 °C 1007.7 hPa Calm     34 % 0 mm
22:59 24.3 °C 7.4 °C 1007.7 hPa South 1.6 km/h 0.2 km/h 34 % 0 mm
23:04 24.1 °C 8.1 °C 1007.7 hPa South 6.4 km/h 4.2 km/h 36 % 0 mm
23:09 24.1 °C 6.8 °C 1007.7 hPa South 7.4 km/h 6.8 km/h 33 % 0 mm
23:14 24.8 °C 5.6 °C 1008 hPa South 6.4 km/h 5.5 km/h 29 % 0 mm
23:19 26.1 °C 5.1 °C 1008 hPa South 9.3 km/h 8.5 km/h 26 % 0 mm
23:24 27.2 °C 4.8 °C 1008 hPa South 14.5 km/h 12.1 km/h 24 % 0 mm
23:29 27.8 °C 4.8 °C 1008 hPa South 22.2 km/h 11.9 km/h 23 % 0 mm
23:34 27.4 °C 4.4 °C 1008 hPa South 24.1 km/h 13.2 km/h 23 % 0 mm
23:39 26.8 °C 4.6 °C 1008 hPa South 14.8 km/h 8.2 km/h 24 % 0 mm
23:44 26.3 °C 4.7 °C 1008.4 hPa South 16.7 km/h 10 km/h 25 % 0 mm
23:49 25.9 °C 4.9 °C 1008.4 hPa SSW 20.4 km/h 12.2 km/h 26 % 0 mm
23:54 25.6 °C 5.2 °C 1008.4 hPa SSW 18.5 km/h 6.9 km/h 27 % 0 mm
23:59 25.4 °C 3.9 °C 1008.7 hPa SSW 18.5 km/h 10.9 km/h 25 % 0 mm
Ararat Weather
Compliments of Weather Underground - 2.25 mb
Click here to send mail.


ABOUT

Live weather data from Ararat, Victoria, Australia, 3377
Data uploaded from Cumulus every 5 minutes to Weather Underground.
This site then downloads the raw data for formatting and display.
Metric and imperial data can be displayed. Graphs and historical data available.
Includes Sun and Moon times and rain image live from BOM.

Check out Ararat Weather on Facebook, Twitter and Google +

Help support ongoing costs by checking out the ads





Follow @AraratWeather